Time;durP1;ratioP1;P1;durP2;ratioP2;P2;SDS_P1;SDS_P2;PMS_P1;PMS_P2;Temp;Humidity;BMP_temperature;BMP_pressure;BME280_temperature;BME280_humidity;BME280_pressure;Samples;Min_cycle;Max_cycle;Signal;HPM_P1;HPM_P2
2022/10/06 00:02:22;;;;;;;3.25;1.00;;;14.60;99.90;;;;;;5061447;27;20066;-58
2022/10/06 00:04:47;;;;;;;2.88;1.20;;;14.60;99.90;;;;;;5120775;27;20091;-55
2022/10/06 00:07:16;;;;;;;5.35;0.90;;;14.60;99.90;;;;;;5059326;27;20021;-59
2022/10/06 00:09:42;;;;;;;6.85;1.30;;;14.60;99.90;;;;;;5125077;27;20027;-58
2022/10/06 00:12:08;;;;;;;4.20;0.90;;;14.60;99.90;;;;;;5062251;27;20036;-55
2022/10/06 00:14:34;;;;;;;2.58;0.75;;;14.60;99.90;;;;;;5124025;27;20677;-58
2022/10/06 00:17:00;;;;;;;6.20;1.85;;;14.60;99.90;;;;;;5073988;27;20241;-57
2022/10/06 00:19:25;;;;;;;4.20;0.95;;;14.50;99.90;;;;;;5109761;27;20538;-58
2022/10/06 00:21:51;;;;;;;5.45;1.20;;;14.50;99.90;;;;;;5088633;27;20021;-57
2022/10/06 00:24:17;;;;;;;6.50;1.15;;;14.40;99.90;;;;;;5095302;27;20075;-56
2022/10/06 00:26:43;;;;;;;3.55;0.93;;;14.40;99.90;;;;;;5102329;27;20025;-58
2022/10/06 00:29:09;;;;;;;5.53;1.00;;;14.40;99.90;;;;;;5082490;27;20075;-58
2022/10/06 00:31:34;;;;;;;4.63;1.25;;;14.40;99.90;;;;;;5114955;27;20019;-56
2022/10/06 00:34:00;;;;;;;4.80;1.00;;;14.40;99.90;;;;;;5069199;27;20138;-55
2022/10/06 00:36:27;;;;;;;6.63;1.27;;;14.40;99.90;;;;;;5116966;27;20029;-58
2022/10/06 00:38:52;;;;;;;5.88;1.00;;;14.30;99.90;;;;;;5066385;27;20480;-58
2022/10/06 00:41:18;;;;;;;6.72;1.20;;;14.30;99.90;;;;;;5122425;27;20034;-57
2022/10/06 00:43:57;;;;;;;7.32;1.38;;;14.30;99.90;;;;;;5062189;27;20375;-60
2022/10/06 00:46:40;;;;;;;5.63;1.17;;;14.30;99.90;;;;;;5123195;27;20108;-59
2022/10/06 00:49:19;;;;;;;6.38;1.23;;;14.30;99.90;;;;;;5076034;27;20064;-59
2022/10/06 00:51:50;;;;;;;7.60;1.20;;;14.30;99.90;;;;;;5027469;27;20034;-58
2022/10/06 00:54:16;;;;;;;5.65;1.30;;;14.30;99.90;;;;;;5075448;27;20425;-59
2022/10/06 00:56:41;;;;;;;5.55;1.23;;;14.30;99.90;;;;;;5020829;28;20461;-59
2022/10/06 00:59:12;;;;;;;5.72;1.17;;;14.30;99.90;;;;;;5085012;27;20028;-55
2022/10/06 01:01:41;;;;;;;5.80;1.17;;;14.20;99.90;;;;;;5020605;28;20358;-57
2022/10/06 01:04:12;;;;;;;5.40;1.30;;;14.20;99.90;;;;;;5085074;27;20047;-59
2022/10/06 01:06:48;;;;;;;6.22;1.60;;;14.20;99.90;;;;;;5104418;27;20101;-57
2022/10/06 01:09:16;;;;;;;7.13;1.30;;;14.20;99.90;;;;;;5058779;27;20034;-56
2022/10/06 01:11:43;;;;;;;6.82;1.20;;;14.20;99.90;;;;;;5124912;27;20049;-56
2022/10/06 01:14:10;;;;;;;3.72;1.08;;;14.20;99.90;;;;;;5062928;27;20021;-54
2022/10/06 01:16:39;;;;;;;7.68;1.00;;;14.20;99.90;;;;;;5121203;27;20565;-58
2022/10/06 01:19:25;;;;;;;8.80;1.40;;;14.20;99.90;;;;;;5074184;27;20108;-57
2022/10/06 01:21:53;;;;;;;4.50;1.02;;;14.10;99.90;;;;;;4999941;28;20038;-58
2022/10/06 01:24:19;;;;;;;5.90;1.25;;;14.10;99.90;;;;;;5067148;27;20027;-57
2022/10/06 01:26:49;;;;;;;4.18;1.15;;;14.00;99.90;;;;;;5030876;27;20037;-59
2022/10/06 01:29:15;;;;;;;7.07;1.50;;;14.00;99.90;;;;;;5062158;28;20027;-57
2022/10/06 01:31:41;;;;;;;6.60;1.25;;;14.00;99.90;;;;;;5042415;27;20476;-58
2022/10/06 01:34:06;;;;;;;8.75;1.55;;;13.90;99.90;;;;;;5048766;28;20028;-59
2022/10/06 01:36:32;;;;;;;4.65;1.48;;;13.90;99.90;;;;;;5056086;28;20108;-57
2022/10/06 01:38:57;;;;;;;7.65;1.23;;;13.90;99.90;;;;;;5035453;28;20017;-58
2022/10/06 01:41:24;;;;;;;5.65;1.20;;;13.90;99.90;;;;;;5068400;28;20824;-56
2022/10/06 01:43:50;;;;;;;5.22;1.27;;;13.90;99.90;;;;;;5027610;28;20484;-58
2022/10/06 01:46:15;;;;;;;6.20;1.35;;;13.90;99.90;;;;;;5077756;28;20058;-59
2022/10/06 01:48:41;;;;;;;6.63;1.20;;;13.80;99.90;;;;;;5026804;28;20022;-57
2022/10/06 01:51:08;;;;;;;7.65;1.20;;;13.80;99.90;;;;;;5077757;27;20069;-58
2022/10/06 01:53:33;;;;;;;5.53;1.20;;;13.80;99.90;;;;;;5019657;28;20025;-58
2022/10/06 01:55:59;;;;;;;5.80;1.25;;;13.80;99.90;;;;;;5084609;28;20022;-57
2022/10/06 01:58:24;;;;;;;8.75;1.35;;;13.90;99.90;;;;;;5019379;28;20040;-58
2022/10/06 02:00:50;;;;;;;7.22;1.20;;;13.90;99.90;;;;;;5084974;28;20114;-59
2022/10/06 02:03:16;;;;;;;6.45;1.30;;;13.90;99.90;;;;;;5019143;28;20052;-56
2022/10/06 02:05:41;;;;;;;4.22;1.17;;;13.90;99.90;;;;;;5032360;28;20033;-59
2022/10/06 02:08:08;;;;;;;5.35;1.20;;;13.90;99.90;;;;;;5019846;28;20029;-59
2022/10/06 02:10:34;;;;;;;9.00;1.15;;;13.90;99.90;;;;;;5054954;28;20506;-58
2022/10/06 02:13:00;;;;;;;5.45;1.30;;;13.80;99.90;;;;;;5099407;28;20023;-59
2022/10/06 02:15:26;;;;;;;6.82;1.20;;;13.80;99.90;;;;;;5096805;28;20629;-59
2022/10/06 02:17:52;;;;;;;4.40;1.13;;;13.80;99.90;;;;;;5085350;28;20027;-56
2022/10/06 02:20:18;;;;;;;6.55;1.35;;;13.70;99.90;;;;;;5109987;27;20038;-57
2022/10/06 02:22:44;;;;;;;6.88;1.52;;;13.70;99.90;;;;;;5073157;28;20023;-58
2022/10/06 02:25:11;;;;;;;8.63;1.50;;;13.70;99.90;;;;;;5116283;27;20031;-60
2022/10/06 02:27:37;;;;;;;6.28;1.30;;;13.60;99.90;;;;;;5065431;27;20034;-59
2022/10/06 02:30:05;;;;;;;7.15;1.40;;;13.60;99.90;;;;;;5115178;27;20042;-59
2022/10/06 02:32:36;;;;;;;4.88;1.33;;;13.50;99.90;;;;;;5065048;27;20099;-58
2022/10/06 02:35:03;;;;;;;7.38;1.30;;;13.50;99.90;;;;;;5122853;27;20142;-57
2022/10/06 02:37:29;;;;;;;6.35;1.45;;;13.40;99.90;;;;;;5057185;27;20019;-54
2022/10/06 02:39:55;;;;;;;4.38;1.40;;;13.40;99.90;;;;;;5125732;27;20068;-58
2022/10/06 02:42:20;;;;;;;3.75;1.13;;;13.40;99.90;;;;;;5060758;27;20021;-57
2022/10/06 02:44:46;;;;;;;6.13;1.35;;;13.30;99.90;;;;;;5126434;27;20039;-58
2022/10/06 02:47:13;;;;;;;5.50;1.10;;;13.20;99.90;;;;;;5068273;27;20021;-58
2022/10/06 02:49:39;;;;;;;5.72;1.60;;;13.20;99.90;;;;;;5121703;27;20027;-59
2022/10/06 02:52:04;;;;;;;5.18;1.13;;;13.20;99.90;;;;;;5080500;27;20380;-59
2022/10/06 02:54:30;;;;;;;5.15;1.42;;;13.20;99.90;;;;;;5106980;27;20023;-57
2022/10/06 02:56:55;;;;;;;5.28;1.30;;;13.20;99.90;;;;;;5095939;27;20021;-58
2022/10/06 02:59:21;;;;;;;7.45;1.30;;;13.10;99.90;;;;;;5092359;27;20386;-57
2022/10/06 03:01:46;;;;;;;6.30;1.60;;;13.10;99.90;;;;;;5108798;27;20835;-55
2022/10/06 03:04:12;;;;;;;6.57;1.27;;;13.10;99.90;;;;;;5078684;27;20055;-57
2022/10/06 03:06:37;;;;;;;7.00;1.50;;;13.10;99.90;;;;;;5055513;27;20063;-58
2022/10/06 03:09:06;;;;;;;7.43;1.67;;;13.00;99.90;;;;;;5080980;27;20060;-58
2022/10/06 03:11:34;;;;;;;6.22;1.30;;;13.00;99.90;;;;;;5029221;27;20133;-57
2022/10/06 03:13:59;;;;;;;4.88;1.10;;;13.00;99.90;;;;;;5079717;27;20062;-59
2022/10/06 03:16:31;;;;;;;6.20;1.20;;;12.90;99.90;;;;;;5022116;27;20021;-58
2022/10/06 03:18:57;;;;;;;3.17;1.02;;;12.90;99.90;;;;;;5063809;27;20110;-58
2022/10/06 03:21:28;;;;;;;6.72;1.33;;;12.90;99.90;;;;;;5125796;27;20102;-57
2022/10/06 03:23:56;;;;;;;4.38;1.08;;;12.90;99.90;;;;;;5060004;27;20102;-58
2022/10/06 03:26:26;;;;;;;5.25;1.27;;;12.80;99.90;;;;;;5012616;27;20064;-58
2022/10/06 03:28:53;;;;;;;7.25;1.45;;;12.80;99.90;;;;;;5085504;27;20030;-59
2022/10/06 03:31:18;;;;;;;7.30;1.42;;;12.80;99.90;;;;;;5021771;28;20033;-58
2022/10/06 03:33:44;;;;;;;7.55;1.38;;;12.70;99.90;;;;;;5078568;27;20036;-56
2022/10/06 03:36:12;;;;;;;8.93;1.33;;;12.70;99.90;;;;;;5028784;27;20026;-59
2022/10/06 03:38:39;;;;;;;5.70;1.30;;;12.70;99.90;;;;;;5068143;27;20092;-56
2022/10/06 03:41:07;;;;;;;9.00;1.33;;;12.70;99.90;;;;;;5039827;27;20116;-59
2022/10/06 03:43:33;;;;;;;5.35;1.38;;;12.70;99.90;;;;;;5056332;27;20019;-58
2022/10/06 03:46:00;;;;;;;6.82;1.45;;;12.60;99.90;;;;;;5052403;27;20018;-59
2022/10/06 03:48:27;;;;;;;4.85;1.30;;;12.60;99.90;;;;;;5043389;27;20023;-59
2022/10/06 03:51:05;;;;;;;7.65;1.95;;;12.60;99.90;;;;;;5062008;27;20029;-58
2022/10/06 03:53:32;;;;;;;5.93;1.40;;;12.50;99.90;;;;;;5039939;27;20040;-59
2022/10/06 03:56:04;;;;;;;6.43;1.50;;;12.50;99.90;;;;;;5066371;27;20026;-59
2022/10/06 03:58:31;;;;;;;7.68;1.30;;;12.50;99.90;;;;;;5031237;27;20068;-56
2022/10/06 04:01:02;;;;;;;8.18;1.40;;;12.50;99.90;;;;;;5075524;27;20033;-60
2022/10/06 04:03:28;;;;;;;6.40;1.25;;;12.50;99.90;;;;;;5027873;27;20090;-58
2022/10/06 04:05:59;;;;;;;6.88;1.40;;;12.50;99.90;;;;;;5116926;27;20039;-59
2022/10/06 04:08:25;;;;;;;6.95;1.52;;;12.40;99.90;;;;;;5116634;27;20049;-60
2022/10/06 04:10:51;;;;;;;5.13;1.40;;;12.40;99.90;;;;;;5067310;27;20035;-59
2022/10/06 04:13:18;;;;;;;6.75;1.33;;;12.40;99.90;;;;;;5124800;27;20019;-59
2022/10/06 04:15:45;;;;;;;6.45;1.30;;;12.40;99.90;;;;;;5085063;27;20029;-59
2022/10/06 04:18:11;;;;;;;5.72;1.50;;;12.30;99.90;;;;;;5021177;28;20036;-60
2022/10/06 04:20:37;;;;;;;5.70;1.33;;;12.30;99.90;;;;;;5085904;27;20019;-59
2022/10/06 04:23:02;;;;;;;7.40;1.75;;;12.30;99.90;;;;;;5021185;28;20027;-59
2022/10/06 04:25:28;;;;;;;6.80;1.30;;;12.20;99.90;;;;;;5078970;27;20046;-60
2022/10/06 04:27:54;;;;;;;5.05;1.23;;;12.20;99.90;;;;;;5028000;27;20044;-59
2022/10/06 04:30:19;;;;;;;6.18;1.63;;;12.20;99.90;;;;;;5063963;27;20055;-59
2022/10/06 04:32:45;;;;;;;7.45;1.35;;;12.10;99.90;;;;;;5041830;27;20104;-59
2022/10/06 04:35:11;;;;;;;6.45;1.70;;;12.10;99.90;;;;;;5050908;27;20130;-59
2022/10/06 04:37:36;;;;;;;4.82;1.05;;;12.10;99.90;;;;;;5054501;27;20026;-59
2022/10/06 04:40:02;;;;;;;8.68;1.40;;;12.00;99.90;;;;;;5038531;27;20040;-60
2022/10/06 04:42:28;;;;;;;5.15;1.20;;;12.00;99.90;;;;;;5067958;27;20025;-59
2022/10/06 04:44:54;;;;;;;3.95;1.00;;;12.00;99.90;;;;;;5027304;27;20036;-60
2022/10/06 04:47:20;;;;;;;5.13;1.17;;;12.00;99.90;;;;;;5079229;27;20543;-59
2022/10/06 04:49:45;;;;;;;5.45;1.33;;;11.90;99.90;;;;;;5028275;27;20471;-59
2022/10/06 04:52:11;;;;;;;6.03;1.30;;;11.90;99.90;;;;;;5077872;27;20063;-58
2022/10/06 04:54:36;;;;;;;8.02;1.63;;;11.90;99.90;;;;;;5021176;28;20387;-56
2022/10/06 04:57:02;;;;;;;7.00;1.52;;;11.90;99.90;;;;;;5085300;27;20109;-58
2022/10/06 05:02:18;;;;;;;5.78;1.02;;;11.80;99.90;;;;;;5084304;27;20469;-59
2022/10/06 05:04:44;;;;;;;4.55;1.35;;;11.80;99.90;;;;;;5032153;27;20076;-57
2022/10/06 05:07:09;;;;;;;8.13;1.50;;;11.80;99.90;;;;;;5055581;27;20468;-59
2022/10/06 05:09:35;;;;;;;7.05;1.63;;;11.80;99.90;;;;;;5124498;27;20023;-58
2022/10/06 05:12:00;;;;;;;7.88;1.40;;;11.70;99.90;;;;;;5066037;27;20510;-59
2022/10/06 05:14:26;;;;;;;5.97;1.30;;;11.70;99.90;;;;;;5116193;27;20035;-58
2022/10/06 05:16:51;;;;;;;4.85;1.58;;;11.70;99.90;;;;;;5080793;27;20078;-59
2022/10/06 05:19:17;;;;;;;6.72;1.40;;;11.70;99.90;;;;;;5102329;27;20027;-58
2022/10/06 05:21:42;;;;;;;4.90;1.42;;;11.70;99.90;;;;;;5094531;27;20022;-57
2022/10/06 05:24:08;;;;;;;5.75;1.10;;;11.70;99.90;;;;;;5088549;27;20076;-58
2022/10/06 05:26:34;;;;;;;6.20;1.65;;;11.70;99.90;;;;;;5107474;27;20031;-59
2022/10/06 05:29:00;;;;;;;6.18;1.20;;;11.60;99.90;;;;;;5076685;28;20019;-56
2022/10/06 05:31:31;;;;;;;7.03;1.40;;;11.60;99.90;;;;;;5116651;27;20531;-54
2022/10/06 05:33:58;;;;;;;7.15;1.30;;;11.60;99.90;;;;;;5065533;28;20108;-59
2022/10/06 05:36:29;;;;;;;7.78;1.52;;;11.60;99.90;;;;;;5116724;27;20031;-58
2022/10/06 05:38:56;;;;;;;6.07;1.40;;;11.60;99.90;;;;;;5066458;27;20035;-58
2022/10/06 05:41:27;;;;;;;10.88;1.55;;;11.60;99.90;;;;;;5118642;27;20999;-57
2022/10/06 05:43:53;;;;;;;6.63;1.50;;;11.60;99.90;;;;;;5074806;28;20170;-57
2022/10/06 05:46:23;;;;;;;5.80;1.38;;;11.60;99.90;;;;;;5022026;28;20080;-59
2022/10/06 05:48:54;;;;;;;3.08;1.08;;;11.50;99.90;;;;;;5058393;27;20067;-57
2022/10/06 05:51:20;;;;;;;6.38;2.00;;;11.50;99.90;;;;;;5069321;27;20029;-57
2022/10/06 05:53:47;;;;;;;4.88;1.15;;;11.50;99.90;;;;;;5047597;28;20022;-57
2022/10/06 05:56:13;;;;;;;6.30;1.17;;;11.50;99.90;;;;;;5122148;27;20074;-57
2022/10/06 05:58:42;;;;;;;5.57;1.50;;;11.50;99.90;;;;;;5061570;27;20057;-56
2022/10/06 06:01:15;;;;;;;5.35;1.63;;;11.50;99.90;;;;;;5120956;27;20076;-58
2022/10/06 06:03:42;;;;;;;7.75;1.60;;;11.50;99.90;;;;;;5067612;28;20042;-59
2022/10/06 06:06:19;;;;;;;4.82;1.20;;;11.50;99.90;;;;;;5072244;28;20079;-58
2022/10/06 06:08:45;;;;;;;6.13;1.50;;;11.50;99.90;;;;;;5068439;28;20102;-57
2022/10/06 06:11:11;;;;;;;5.18;1.35;;;11.50;99.90;;;;;;5032285;27;20210;-58
2022/10/06 06:13:37;;;;;;;7.32;1.63;;;11.40;99.90;;;;;;5057677;27;20470;-55
2022/10/06 06:16:06;;;;;;;8.88;1.55;;;11.40;99.90;;;;;;5049577;27;20041;-58
2022/10/06 06:18:34;;;;;;;6.30;1.40;;;11.40;99.90;;;;;;5048228;27;20508;-56
2022/10/06 06:21:02;;;;;;;5.30;1.50;;;11.40;99.90;;;;;;5059000;27;20067;-54
2022/10/06 06:23:34;;;;;;;8.05;1.48;;;11.40;99.90;;;;;;5037607;27;20025;-58
2022/10/06 06:26:03;;;;;;;3.15;1.15;;;11.40;99.90;;;;;;5066063;27;20033;-59
2022/10/06 06:28:29;;;;;;;4.28;1.42;;;11.40;99.90;;;;;;5030594;27;20025;-59
2022/10/06 06:31:08;;;;;;;4.53;1.15;;;11.40;99.90;;;;;;5077378;27;20403;-57
2022/10/06 06:33:39;;;;;;;5.70;1.42;;;11.50;99.90;;;;;;5029713;27;20472;-57
2022/10/06 06:36:16;;;;;;;6.72;1.60;;;11.50;99.90;;;;;;5059453;27;20019;-57
2022/10/06 06:38:42;;;;;;;7.50;1.60;;;11.50;99.90;;;;;;5119921;27;20019;-57
2022/10/06 06:41:15;;;;;;;6.47;1.75;;;11.50;99.90;;;;;;5067495;27;20035;-58
2022/10/06 06:43:41;;;;;;;5.25;1.42;;;11.50;99.90;;;;;;5119686;27;20120;-56
2022/10/06 06:46:07;;;;;;;10.25;1.65;;;11.50;99.90;;;;;;5068634;27;20247;-55
2022/10/06 06:48:36;;;;;;;4.57;1.50;;;11.50;99.90;;;;;;5060489;27;20202;-58
2022/10/06 06:51:02;;;;;;;7.18;1.40;;;11.50;99.90;;;;;;5082658;27;20761;-58
2022/10/06 06:53:28;;;;;;;6.95;1.90;;;11.50;99.90;;;;;;5022262;28;20034;-56
2022/10/06 06:55:53;;;;;;;9.30;1.38;;;11.60;99.90;;;;;;5087838;27;20034;-58
2022/10/06 06:58:19;;;;;;;5.63;1.23;;;11.60;99.90;;;;;;5021468;28;20026;-56
2022/10/06 07:00:46;;;;;;;6.15;1.38;;;11.60;99.90;;;;;;5084801;27;20019;-58
2022/10/06 07:03:14;;;;;;;6.95;1.70;;;11.60;99.90;;;;;;5023118;27;20045;-54
2022/10/06 07:05:40;;;;;;;9.48;1.50;;;11.70;99.90;;;;;;5048574;27;20034;-56
2022/10/06 07:08:09;;;;;;;4.50;1.27;;;11.70;99.90;;;;;;5023054;28;20017;-56
2022/10/06 07:10:36;;;;;;;4.72;1.55;;;11.70;99.90;;;;;;5062909;27;20019;-51
2022/10/06 07:13:02;;;;;;;8.57;1.80;;;11.80;99.90;;;;;;5046402;27;20500;-56
2022/10/06 07:26:29;;;;;;;9.15;2.03;;;11.90;99.90;;;;;;5074568;27;20446;-41
2022/10/06 07:28:59;;;;;;;8.70;2.22;;;12.00;99.90;;;;;;5030322;27;20100;-47
2022/10/06 07:31:32;;;;;;;9.68;2.47;;;12.00;99.90;;;;;;5068540;27;20106;-47
2022/10/06 07:33:58;;;;;;;3.08;1.63;;;12.10;99.90;;;;;;5035523;27;20107;-40
2022/10/06 07:36:24;;;;;;;8.48;1.80;;;12.10;99.90;;;;;;5043237;27;20047;-40
2022/10/06 07:38:49;;;;;;;7.90;2.08;;;12.10;99.90;;;;;;5100472;27;20027;-43
2022/10/06 07:41:15;;;;;;;7.95;1.67;;;12.20;99.90;;;;;;5101103;27;20091;-43
2022/10/06 07:43:41;;;;;;;7.68;1.83;;;12.30;99.90;;;;;;5086507;27;20066;-42
2022/10/06 07:46:12;;;;;;;9.50;1.88;;;12.30;99.90;;;;;;5115307;27;20030;-42
2022/10/06 07:48:38;;;;;;;9.15;1.73;;;12.30;99.90;;;;;;5076564;27;20031;-44
2022/10/06 07:51:11;;;;;;;7.93;1.92;;;12.40;99.90;;;;;;5118742;27;20032;-42
2022/10/06 07:53:37;;;;;;;12.05;2.70;;;12.40;99.90;;;;;;5056473;27;20019;-41
2022/10/06 07:56:05;;;;;;;8.73;2.13;;;12.50;99.90;;;;;;5118016;27;20058;-41
2022/10/06 07:58:32;;;;;;;8.45;1.90;;;12.50;99.90;;;;;;5067017;27;20517;-41
2022/10/06 08:01:04;;;;;;;6.97;2.20;;;12.60;99.90;;;;;;5090277;27;20033;-43
2022/10/06 08:03:30;;;;;;;;;;;12.60;99.90;;;;;;5079360;27;20046;-42
2022/10/06 08:06:03;;;;;;;6.32;1.77;;;12.60;99.90;;;;;;5022013;27;20362;-43
2022/10/06 08:08:31;;;;;;;8.82;1.90;;;12.70;99.90;;;;;;5082722;27;20090;-41
2022/10/06 08:10:58;;;;;;;10.45;2.28;;;12.70;99.90;;;;;;5020559;28;20040;-40
2022/10/06 08:13:24;;;;;;;5.97;2.15;;;12.70;99.90;;;;;;5088008;27;20023;-44
2022/10/06 08:15:51;;;;;;;4.28;1.73;;;12.80;99.90;;;;;;5021087;28;20041;-43
2022/10/06 08:18:17;;;;;;;6.50;2.20;;;12.90;99.90;;;;;;5079495;27;20015;-39
2022/10/06 08:20:44;;;;;;;8.00;1.83;;;12.90;99.90;;;;;;5025681;27;20053;-40
2022/10/06 08:23:10;;;;;;;9.27;2.70;;;13.00;99.90;;;;;;5065921;27;20027;-39
2022/10/06 08:25:39;;;;;;;9.10;2.15;;;13.00;99.90;;;;;;5037038;27;20438;-42
2022/10/06 08:28:04;;;;;;;7.18;2.00;;;13.00;99.90;;;;;;5056733;27;20034;-50
2022/10/06 08:30:30;;;;;;;7.63;2.05;;;13.10;99.90;;;;;;5049082;27;20742;-51
2022/10/06 08:32:57;;;;;;;6.60;1.65;;;13.20;99.90;;;;;;5043656;27;20054;-51
2022/10/06 08:35:22;;;;;;;7.43;2.00;;;13.20;99.90;;;;;;5062865;27;20057;-50
2022/10/06 08:37:49;;;;;;;7.20;1.90;;;13.30;99.90;;;;;;5029285;27;20151;-51
2022/10/06 08:40:14;;;;;;;6.47;1.80;;;13.30;99.90;;;;;;5076232;27;20037;-53
2022/10/06 08:42:43;;;;;;;10.25;2.38;;;13.40;99.90;;;;;;5025719;27;20088;-48
2022/10/06 08:45:22;;;;;;;8.75;2.05;;;13.40;99.90;;;;;;5078277;27;20037;-55
2022/10/06 08:48:02;;;;;;;8.60;1.67;;;13.50;99.90;;;;;;5028039;27;20033;-51
2022/10/06 08:50:31;;;;;;;8.73;1.70;;;13.60;99.90;;;;;;5077511;27;20499;-52
2022/10/06 08:53:11;;;;;;;10.70;2.10;;;13.60;99.90;;;;;;5027842;27;20499;-55
2022/10/06 08:55:46;;;;;;;7.57;1.90;;;13.70;99.90;;;;;;5078798;27;20099;-55
2022/10/06 08:58:27;;;;;;;7.30;1.80;;;13.70;99.90;;;;;;5026626;27;20023;-55
2022/10/06 09:00:55;;;;;;;8.57;2.03;;;13.80;99.90;;;;;;5056644;27;20031;-53
2022/10/06 09:03:26;;;;;;;8.52;1.60;;;13.80;99.90;;;;;;5115715;27;20504;-53
2022/10/06 09:06:03;;;;;;;6.10;1.70;;;14.00;99.90;;;;;;5039275;27;20058;-51
2022/10/06 09:08:36;;;;;;;8.13;1.92;;;14.00;99.90;;;;;;5026838;27;20045;-56
2022/10/06 09:11:19;;;;;;;6.60;1.27;;;14.10;99.90;;;;;;5077153;27;20472;-55
2022/10/06 09:14:05;;;;;;;5.72;1.38;;;14.10;99.90;;;;;;5027115;27;20092;-55
2022/10/06 09:16:38;;;;;;;5.43;1.45;;;14.20;99.90;;;;;;5061480;27;20078;-52
2022/10/06 09:19:28;;;;;;;5.22;1.42;;;14.30;99.90;;;;;;5116057;27;20019;-55
2022/10/06 09:21:54;;;;;;;9.25;1.63;;;14.30;99.90;;;;;;5073261;27;20409;-54
2022/10/06 09:24:36;;;;;;;8.70;1.45;;;14.30;99.90;;;;;;5114291;27;20016;-56
2022/10/06 09:27:20;;;;;;;7.28;2.05;;;14.40;99.90;;;;;;5078668;28;20042;-55
2022/10/06 09:29:49;;;;;;;4.07;1.33;;;14.50;99.90;;;;;;5104254;27;20015;-55
2022/10/06 09:32:17;;;;;;;4.03;1.20;;;14.50;99.90;;;;;;5080365;28;20025;-56
2022/10/06 09:34:48;;;;;;;5.82;1.40;;;14.50;99.90;;;;;;5113561;27;20031;-54
2022/10/06 09:37:14;;;;;;;7.80;1.30;;;14.60;99.90;;;;;;5071669;28;20031;-57
2022/10/06 09:39:46;;;;;;;8.52;2.17;;;14.60;99.90;;;;;;5116048;27;20104;-55
2022/10/06 09:42:25;;;;;;;;;;;14.70;99.90;;;;;;5065949;27;20098;-54
2022/10/06 09:45:04;;;;;;;5.28;1.30;;;14.80;99.90;;;;;;5116384;27;19921;-53
2022/10/06 09:47:34;;;;;;;7.70;1.40;;;14.80;99.90;;;;;;5058623;27;20105;-56
2022/10/06 09:50:21;;;;;;;5.88;1.35;;;14.80;99.90;;;;;;5120904;27;20021;-53
2022/10/06 09:53:07;;;;;;;5.55;1.23;;;14.90;99.90;;;;;;5067796;27;20034;-56
2022/10/06 09:55:35;;;;;;;8.18;1.60;;;14.90;99.90;;;;;;5111200;27;20072;-56
2022/10/06 09:58:22;;;;;;;5.10;1.40;;;15.00;99.90;;;;;;5047441;27;20551;-51
2022/10/06 10:01:10;;;;;;;4.93;1.30;;;15.00;99.90;;;;;;5041183;27;20029;-56
2022/10/06 10:03:45;;;;;;;5.13;1.30;;;15.10;99.90;;;;;;5051785;27;20182;-55
2022/10/06 10:06:22;;;;;;;5.63;1.13;;;15.20;99.90;;;;;;5066023;27;20595;-56
2022/10/06 10:08:48;;;;;;;4.20;1.23;;;15.30;99.90;;;;;;5032999;27;20040;-57
2022/10/06 10:14:21;;;;;;;5.55;1.30;;;15.40;99.90;;;;;;5045069;27;20043;-58
2022/10/06 10:16:47;;;;;;;4.30;1.73;;;15.50;99.90;;;;;;5062341;27;20075;-55
2022/10/06 10:19:22;;;;;;;5.72;1.40;;;15.50;99.90;;;;;;5047807;27;20029;-56
2022/10/06 10:21:48;;;;;;;8.15;1.67;;;15.60;99.90;;;;;;5055993;27;20035;-57
2022/10/06 10:24:22;;;;;;;8.38;1.40;;;15.60;99.90;;;;;;5054113;27;20033;-53
2022/10/06 10:27:06;;;;;;;3.88;1.20;;;15.70;99.90;;;;;;5047744;27;20272;-56
2022/10/06 10:30:06;;;;;;;6.65;1.20;;;15.70;99.90;;;;;;5048893;27;20128;-57
2022/10/06 10:32:44;;;;;;;7.15;1.45;;;15.80;99.90;;;;;;5072467;27;20031;-54
2022/10/06 10:35:18;;;;;;;5.95;1.40;;;15.80;99.90;;;;;;5028879;27;20033;-54
2022/10/06 10:38:19;;;;;;;6.50;1.48;;;15.90;99.90;;;;;;5073272;27;20363;-55
2022/10/06 10:41:05;;;;;;;6.45;1.50;;;15.90;99.90;;;;;;5004101;28;20109;-58
2022/10/06 10:43:41;;;;;;;6.90;2.10;;;16.00;99.90;;;;;;5087113;27;20077;-57
2022/10/06 10:46:21;;;;;;;4.68;1.23;;;16.00;99.90;;;;;;5022625;28;20037;-58
2022/10/06 10:49:05;;;;;;;5.70;1.65;;;16.00;99.90;;;;;;5087990;27;20014;-57
2022/10/06 10:51:46;;;;;;;5.40;1.08;;;15.90;99.90;;;;;;5022255;28;20036;-57
2022/10/06 10:54:18;;;;;;;8.23;1.25;;;15.90;99.90;;;;;;5066950;27;20054;-57
2022/10/06 10:56:47;;;;;;;5.00;1.35;;;15.80;99.90;;;;;;5116640;27;20545;-55
2022/10/06 10:59:29;;;;;;;6.22;1.20;;;15.80;99.90;;;;;;5044624;27;20559;-55
2022/10/06 11:02:00;;;;;;;6.72;1.25;;;15.90;99.90;;;;;;5022251;28;20517;-51
2022/10/06 11:04:26;;;;;;;5.55;1.25;;;16.00;99.90;;;;;;5060539;27;20056;-54
2022/10/06 11:07:02;;;;;;;4.38;1.25;;;16.20;99.90;;;;;;5065022;27;20037;-57
2022/10/06 11:09:39;;;;;;;4.15;1.20;;;16.30;99.90;;;;;;5086963;27;20033;-58
2022/10/06 11:12:32;;;;;;;5.00;1.10;;;16.30;99.90;;;;;;5022066;28;20025;-57
2022/10/06 11:15:32;;;;;;;4.05;1.15;;;16.40;99.90;;;;;;5075799;27;20657;-54
2022/10/06 11:18:27;;;;;;;3.70;1.20;;;16.30;99.90;;;;;;5027748;27;20035;-57
2022/10/06 11:21:00;;;;;;;4.85;1.13;;;16.30;99.90;;;;;;5082823;27;20039;-55
2022/10/06 11:23:37;;;;;;;;;;;16.20;99.90;;;;;;5113580;27;20455;-56
2022/10/06 11:26:34;;;;;;;5.30;1.25;;;16.20;99.90;;;;;;5081163;27;19966;-57
2022/10/06 11:29:08;;;;;;;6.20;1.10;;;16.00;99.90;;;;;;5094546;27;20098;-57
2022/10/06 11:31:43;;;;;;;4.43;1.20;;;15.90;99.90;;;;;;5095971;27;20027;-58
2022/10/06 11:34:09;;;;;;;5.20;1.33;;;15.90;99.90;;;;;;5057698;27;20031;-57
2022/10/06 11:36:47;;;;;;;4.05;1.30;;;15.90;99.90;;;;;;5056323;27;20688;-55
2022/10/06 11:39:20;;;;;;;7.72;1.63;;;16.00;99.90;;;;;;5043880;27;20038;-58
2022/10/06 11:42:06;;;;;;;4.35;1.10;;;16.10;99.90;;;;;;5056927;27;20036;-56
2022/10/06 11:44:41;;;;;;;3.05;0.90;;;16.20;99.90;;;;;;5051780;27;20550;-54
2022/10/06 11:47:15;;;;;;;3.50;1.08;;;16.30;99.90;;;;;;5047711;27;20029;-46
2022/10/06 11:49:54;;;;;;;4.90;1.27;;;16.30;99.90;;;;;;5044041;27;20037;-53
2022/10/06 11:52:20;;;;;;;6.00;1.25;;;16.40;99.90;;;;;;5099003;27;20517;-51
2022/10/06 11:55:04;;;;;;;5.82;1.23;;;16.50;99.90;;;;;;5098474;27;20108;-57
2022/10/06 11:57:31;;;;;;;3.70;1.30;;;16.60;99.90;;;;;;5020538;28;20053;-53
2022/10/06 12:00:15;;;;;;;3.95;1.45;;;16.60;99.90;;;;;;5046979;27;20239;-53
2022/10/06 12:02:42;;;;;;;4.78;1.10;;;16.60;99.90;;;;;;5046325;27;20056;-57
2022/10/06 12:05:08;;;;;;;4.68;1.48;;;16.60;99.90;;;;;;5046984;27;20126;-57
2022/10/06 12:07:52;;;;;;;6.43;1.45;;;16.50;99.90;;;;;;5051698;27;20029;-52
2022/10/06 12:10:26;;;;;;;4.65;1.25;;;16.40;99.90;;;;;;5040675;27;20031;-51
2022/10/06 12:12:58;;;;;;;7.65;2.17;;;16.40;99.90;;;;;;5020218;28;20366;-52
2022/10/06 12:15:33;;;;;;;3.13;1.17;;;16.40;99.90;;;;;;5041584;27;20347;-55
2022/10/06 12:18:06;;;;;;;5.05;1.02;;;16.40;99.90;;;;;;5090281;27;20531;-56
2022/10/06 12:21:05;;;;;;;3.17;0.82;;;16.50;99.90;;;;;;5102270;27;20029;-50
2022/10/06 12:23:49;;;;;;;3.75;1.02;;;16.60;99.90;;;;;;5105717;27;20055;-55
2022/10/06 12:26:39;;;;;;;5.15;1.00;;;16.60;99.50;;;;;;5078652;27;20065;-53
2022/10/06 12:29:26;;;;;;;3.58;0.80;;;16.70;99.30;;;;;;5121831;27;20114;-57
2022/10/06 12:32:15;;;;;;;2.80;0.88;;;16.70;99.40;;;;;;5060369;27;20635;-54
2022/10/06 12:34:59;;;;;;;5.45;1.20;;;16.80;99.50;;;;;;5000445;28;20038;-57
2022/10/06 12:37:27;;;;;;;5.78;1.20;;;16.80;99.40;;;;;;5084942;27;20108;-54
2022/10/06 12:40:36;;;;;;;5.20;1.38;;;16.80;99.50;;;;;;5020771;28;20037;-57
2022/10/06 12:43:16;;;;;;;4.60;1.23;;;16.80;99.40;;;;;;5096104;27;20027;-55
2022/10/06 12:45:45;;;;;;;3.90;1.00;;;16.70;99.50;;;;;;5116340;27;20039;-54
2022/10/06 12:48:20;;;;;;;3.75;1.20;;;16.70;99.70;;;;;;5066041;27;20027;-55
2022/10/06 12:50:48;;;;;;;5.20;1.10;;;16.60;99.80;;;;;;5117672;27;20130;-59
2022/10/06 12:53:27;;;;;;;4.53;1.10;;;16.50;99.90;;;;;;5075176;27;20009;-54
2022/10/06 12:55:59;;;;;;;5.53;1.02;;;16.40;99.90;;;;;;5024689;27;20025;-58
2022/10/06 12:58:31;;;;;;;9.15;1.33;;;16.40;99.90;;;;;;5074620;27;20109;-56
2022/10/06 13:01:06;;;;;;;3.92;1.08;;;16.40;99.80;;;;;;5021429;28;20039;-55
2022/10/06 13:03:33;;;;;;;4.00;1.10;;;16.40;99.50;;;;;;5064757;27;20043;-57
2022/10/06 13:06:02;;;;;;;4.20;1.30;;;16.50;99.50;;;;;;5107575;27;20046;-55
2022/10/06 13:08:30;;;;;;;3.53;1.00;;;16.50;99.40;;;;;;5084665;27;20029;-56
2022/10/06 13:11:25;;;;;;;3.67;1.00;;;16.70;99.10;;;;;;5019874;28;20025;-56
2022/10/06 13:13:54;;;;;;;5.75;2.38;;;16.80;99.10;;;;;;5078936;27;20420;-57
2022/10/06 13:16:23;;;;;;;4.53;1.63;;;16.80;99.00;;;;;;5019306;28;20029;-55
2022/10/06 13:18:53;;;;;;;5.63;1.77;;;16.90;99.00;;;;;;5084607;27;20018;-55
2022/10/06 13:21:19;;;;;;;5.60;1.35;;;17.00;98.90;;;;;;5019702;28;20041;-54
2022/10/06 13:23:46;;;;;;;4.85;1.42;;;16.90;98.90;;;;;;5084300;27;20019;-54